createdAt,value
2023-10-30T00:02:30.004Z,14.60
2023-10-30T00:06:31.346Z,14.50
2023-10-30T00:10:34.812Z,14.50
2023-10-30T00:14:36.159Z,14.60
2023-10-30T00:18:39.544Z,14.60
2023-10-30T00:22:41.154Z,14.70
2023-10-30T00:26:44.077Z,14.60
2023-10-30T00:30:45.591Z,14.60
2023-10-30T00:34:47.304Z,14.50
2023-10-30T00:38:49.173Z,14.50
2023-10-30T00:42:50.488Z,14.30
2023-10-30T00:46:53.603Z,14.40
2023-10-30T00:50:55.108Z,14.50
2023-10-30T00:54:56.523Z,14.60
2023-10-30T00:58:57.859Z,14.40
2023-10-30T01:02:59.363Z,14.30
2023-10-30T01:07:02.138Z,14.10
2023-10-30T01:11:03.926Z,14.30
2023-10-30T01:15:06.478Z,14.30
2023-10-30T01:19:08.099Z,14.20
2023-10-30T01:23:09.416Z,14.20
2023-10-30T01:27:10.860Z,14.30
2023-10-30T01:31:12.344Z,14.00
2023-10-30T01:35:14.035Z,14.10
2023-10-30T01:39:15.611Z,14.20
2023-10-30T01:43:19.230Z,14.10
2023-10-30T01:47:20.578Z,13.90
2023-10-30T01:51:22.096Z,13.80
2023-10-30T01:55:24.071Z,13.80
2023-10-30T01:59:25.631Z,13.80
2023-10-30T02:03:27.016Z,13.70
2023-10-30T02:07:30.989Z,14.00
2023-10-30T02:11:32.401Z,13.80
2023-10-30T02:15:34.273Z,14.00
2023-10-30T02:19:35.598Z,14.10
2023-10-30T02:23:36.952Z,13.90
2023-10-30T02:27:38.329Z,13.70
2023-10-30T02:31:39.730Z,13.80
2023-10-30T02:35:41.084Z,13.70
2023-10-30T02:39:43.132Z,13.80
2023-10-30T02:43:44.570Z,13.90
2023-10-30T02:47:45.945Z,13.80
2023-10-30T02:51:47.365Z,13.80
2023-10-30T02:55:48.668Z,13.90
2023-10-30T02:59:50.181Z,13.80
2023-10-30T03:03:51.917Z,14.00
2023-10-30T03:07:53.429Z,14.10
2023-10-30T03:11:54.971Z,14.10
2023-10-30T03:15:56.383Z,13.80
2023-10-30T03:19:57.887Z,13.70
2023-10-30T03:23:59.195Z,13.80
2023-10-30T03:28:00.548Z,14.00
2023-10-30T03:32:01.897Z,14.10
2023-10-30T03:36:03.881Z,14.10
2023-10-30T03:40:05.963Z,14.00
2023-10-30T03:44:09.126Z,13.90
2023-10-30T03:48:10.561Z,14.10
2023-10-30T03:52:11.991Z,13.80
2023-10-30T03:56:13.329Z,13.80
2023-10-30T04:00:15.024Z,13.90
2023-10-30T04:04:16.480Z,14.00
2023-10-30T04:08:17.804Z,14.00
2023-10-30T04:12:22.301Z,13.90
2023-10-30T04:16:23.797Z,13.90
2023-10-30T04:20:26.273Z,13.90
2023-10-30T04:24:27.755Z,14.00
2023-10-30T04:28:29.229Z,14.10
2023-10-30T04:32:30.577Z,14.10
2023-10-30T04:36:31.920Z,14.00
2023-10-30T04:40:33.945Z,14.00
2023-10-30T04:44:35.280Z,14.00
2023-10-30T04:48:36.657Z,14.00
2023-10-30T04:52:38.345Z,13.50
2023-10-30T04:56:39.764Z,13.40
2023-10-30T05:00:42.826Z,13.30
2023-10-30T05:04:44.173Z,13.40
2023-10-30T05:08:45.691Z,13.30
2023-10-30T05:12:47.062Z,13.20
2023-10-30T05:16:48.348Z,13.10
2023-10-30T05:20:49.684Z,13.00
2023-10-30T05:24:51.079Z,13.30
2023-10-30T05:28:52.411Z,13.50
2023-10-30T05:32:53.789Z,13.60
2023-10-30T05:36:55.237Z,13.60
2023-10-30T05:40:57.606Z,13.60
2023-10-30T05:44:59.037Z,13.80
2023-10-30T05:49:01.005Z,13.90
2023-10-30T05:53:03.013Z,14.00
2023-10-30T05:57:06.603Z,13.90
2023-10-30T06:01:09.584Z,14.00
2023-10-30T06:05:14.667Z,14.00
2023-10-30T06:09:16.283Z,13.70
2023-10-30T06:13:17.599Z,13.50
2023-10-30T06:17:18.934Z,13.20
2023-10-30T06:21:20.926Z,13.50
2023-10-30T06:25:22.242Z,13.60
2023-10-30T06:29:23.694Z,13.60
2023-10-30T06:33:26.451Z,13.50
2023-10-30T06:37:27.957Z,13.60
2023-10-30T06:41:29.311Z,13.50
2023-10-30T06:45:30.712Z,13.50
2023-10-30T06:49:32.154Z,13.60
2023-10-30T06:53:33.510Z,13.70
2023-10-30T06:57:34.866Z,13.90
2023-10-30T07:01:45.944Z,13.80
2023-10-30T07:05:47.285Z,13.90
2023-10-30T07:09:48.659Z,13.90
2023-10-30T07:13:50.052Z,14.00
2023-10-30T07:17:51.467Z,13.70
2023-10-30T07:21:52.945Z,13.50
2023-10-30T07:25:54.322Z,13.80
2023-10-30T07:29:55.886Z,13.70
2023-10-30T07:33:59.222Z,13.70
2023-10-30T07:38:00.606Z,13.80
2023-10-30T07:42:02.355Z,14.10
2023-10-30T07:46:04.088Z,14.40
2023-10-30T07:50:06.566Z,14.40
2023-10-30T07:54:07.918Z,14.30
2023-10-30T07:58:10.551Z,14.30
2023-10-30T08:02:11.977Z,14.30
2023-10-30T08:06:13.524Z,14.10
2023-10-30T08:10:15.609Z,14.20
2023-10-30T08:14:17.024Z,14.30
2023-10-30T08:18:19.779Z,14.40
2023-10-30T08:22:22.030Z,14.60
2023-10-30T08:26:23.507Z,14.60
2023-10-30T08:30:25.785Z,14.80
2023-10-30T08:34:27.159Z,14.70
2023-10-30T08:38:28.480Z,14.40
2023-10-30T08:42:29.913Z,14.40
2023-10-30T08:46:33.146Z,14.20
2023-10-30T08:50:34.565Z,14.30
2023-10-30T08:54:35.926Z,14.30
2023-10-30T08:58:37.248Z,14.10
2023-10-30T09:02:38.883Z,14.20
2023-10-30T09:06:40.302Z,14.40
2023-10-30T09:10:41.778Z,14.60
2023-10-30T09:14:43.764Z,14.70
2023-10-30T09:18:45.130Z,14.50
2023-10-30T09:22:46.775Z,14.80
2023-10-30T09:26:48.151Z,14.80
2023-10-30T09:30:50.418Z,14.80
2023-10-30T09:34:52.105Z,15.00
2023-10-30T09:38:54.337Z,15.40
2023-10-30T09:42:56.235Z,15.50
2023-10-30T09:46:59.138Z,15.30
2023-10-30T09:51:01.594Z,15.20
2023-10-30T09:55:09.242Z,15.10
2023-10-30T09:59:13.330Z,15.30
2023-10-30T10:03:15.483Z,15.50
2023-10-30T10:07:18.948Z,15.50
2023-10-30T10:11:22.977Z,15.60
2023-10-30T10:15:24.404Z,15.80
2023-10-30T10:19:26.221Z,15.10
2023-10-30T10:23:33.430Z,14.80
2023-10-30T10:27:35.096Z,15.00
2023-10-30T10:31:40.204Z,15.00
2023-10-30T10:35:42.445Z,15.20
2023-10-30T10:39:52.152Z,15.30
2023-10-30T10:43:54.922Z,15.00
2023-10-30T10:47:56.454Z,14.80
2023-10-30T10:51:59.955Z,15.00
2023-10-30T10:56:05.272Z,15.40
2023-10-30T11:00:11.837Z,15.70
2023-10-30T11:04:13.805Z,15.70
2023-10-30T11:08:21.884Z,15.40
2023-10-30T11:12:36.634Z,15.80
2023-10-30T11:17:02.316Z,16.00
2023-10-30T11:21:13.217Z,16.00
2023-10-30T11:25:42.551Z,15.70
2023-10-30T11:29:58.976Z,15.70
2023-10-30T11:34:08.946Z,15.60
2023-10-30T11:38:10.377Z,15.50
2023-10-30T11:42:32.581Z,15.50
2023-10-30T11:46:39.293Z,15.50
2023-10-30T11:50:45.638Z,15.70
2023-10-30T11:54:49.717Z,15.70
2023-10-30T11:58:52.155Z,15.70
2023-10-30T12:02:55.185Z,15.80
2023-10-30T12:06:57.867Z,15.80
2023-10-30T12:10:59.449Z,16.00
2023-10-30T12:15:01.125Z,16.10
2023-10-30T12:19:05.375Z,15.90
2023-10-30T12:23:09.411Z,16.10
2023-10-30T12:27:19.161Z,16.20
2023-10-30T12:31:25.141Z,16.30
2023-10-30T12:35:27.292Z,16.20
2023-10-30T12:39:28.819Z,16.10
2023-10-30T12:43:41.030Z,16.20
2023-10-30T12:47:44.147Z,16.00
2023-10-30T12:51:45.601Z,16.00
2023-10-30T12:55:46.961Z,16.20
2023-10-30T12:59:48.280Z,16.40
2023-10-30T13:03:50.514Z,16.10
2023-10-30T13:07:52.182Z,16.20
2023-10-30T13:11:53.554Z,16.30
2023-10-30T13:15:55.451Z,16.20
2023-10-30T13:19:57.496Z,16.20
2023-10-30T13:24:00.338Z,16.10
2023-10-30T13:28:02.563Z,16.00
2023-10-30T13:32:05.395Z,16.10
2023-10-30T13:36:07.172Z,16.30
2023-10-30T13:40:09.824Z,16.30
2023-10-30T13:44:11.192Z,16.40
2023-10-30T13:48:13.067Z,16.30
2023-10-30T13:52:14.394Z,16.20
2023-10-30T14:00:39.672Z,16.30
2023-10-30T14:04:44.050Z,16.40
2023-10-30T14:08:47.205Z,16.50
2023-10-30T14:12:48.574Z,16.40
2023-10-30T14:16:51.756Z,16.40
2023-10-30T14:20:53.111Z,16.20
2023-10-30T14:24:54.524Z,16.40
2023-10-30T14:28:55.841Z,16.20
2023-10-30T14:32:57.225Z,16.40
2023-10-30T14:36:58.669Z,16.60
2023-10-30T14:41:00.081Z,16.60
2023-10-30T14:45:01.437Z,16.70
2023-10-30T14:49:02.917Z,16.80
2023-10-30T14:53:04.413Z,17.00
2023-10-30T14:57:06.190Z,16.90
2023-10-30T15:01:08.012Z,16.90
2023-10-30T15:05:13.315Z,17.00
2023-10-30T15:09:16.851Z,16.90
2023-10-30T15:13:19.709Z,16.90
2023-10-30T15:17:21.511Z,16.80
2023-10-30T15:21:23.602Z,16.80
2023-10-30T15:25:25.248Z,16.70
2023-10-30T15:29:26.609Z,16.80
2023-10-30T15:33:29.799Z,16.90
2023-10-30T15:37:31.220Z,16.90
2023-10-30T15:41:33.224Z,16.90
2023-10-30T15:45:36.648Z,16.90
2023-10-30T15:49:37.971Z,16.90
2023-10-30T15:57:41.126Z,16.60
2023-10-30T16:01:42.510Z,16.50
2023-10-30T16:09:48.498Z,16.30
2023-10-30T16:13:49.926Z,16.30
2023-10-30T16:18:21.022Z,16.20
2023-10-30T16:21:55.230Z,16.30
2023-10-30T16:25:57.543Z,16.30
2023-10-30T16:30:00.981Z,16.30
2023-10-30T16:34:02.296Z,16.20
2023-10-30T16:38:04.203Z,16.20
2023-10-30T16:42:06.269Z,16.20
2023-10-30T16:46:07.902Z,16.20
2023-10-30T16:50:10.152Z,16.00
2023-10-30T16:54:16.162Z,16.00
2023-10-30T16:58:18.174Z,16.10
2023-10-30T17:02:21.305Z,16.00
2023-10-30T17:06:22.709Z,15.90
2023-10-30T17:10:24.502Z,15.80
2023-10-30T17:14:25.907Z,15.80
2023-10-30T17:18:29.002Z,15.90
2023-10-30T17:22:30.580Z,15.90
2023-10-30T17:26:31.924Z,16.00
2023-10-30T17:30:33.233Z,16.00
2023-10-30T17:34:39.446Z,15.90
2023-10-30T17:38:41.532Z,16.00
2023-10-30T17:42:42.919Z,16.00
2023-10-30T17:46:44.284Z,15.90
2023-10-30T17:50:47.625Z,16.00
2023-10-30T17:54:49.084Z,16.00
2023-10-30T17:58:50.448Z,15.60
2023-10-30T18:02:51.799Z,15.80
2023-10-30T18:06:54.112Z,15.80
2023-10-30T18:10:55.881Z,15.80
2023-10-30T18:14:57.207Z,15.80
2023-10-30T18:18:58.523Z,15.80
2023-10-30T18:23:00.926Z,15.80
2023-10-30T18:27:02.511Z,16.40
2023-10-30T18:31:03.818Z,16.40
2023-10-30T18:35:06.163Z,16.30
2023-10-30T18:39:08.631Z,16.20
2023-10-30T18:43:10.053Z,16.50
2023-10-30T18:47:12.434Z,16.50
2023-10-30T18:51:14.852Z,16.30
2023-10-30T18:55:17.093Z,16.20
2023-10-30T18:59:19.374Z,16.00
2023-10-30T19:03:21.475Z,16.10
2023-10-30T19:07:25.240Z,16.00
2023-10-30T19:11:27.916Z,16.00
2023-10-30T19:15:30.566Z,15.90
2023-10-30T19:19:33.148Z,15.80
2023-10-30T19:23:35.180Z,15.90
2023-10-30T19:27:36.648Z,15.90
2023-10-30T19:31:38.535Z,15.80
2023-10-30T19:35:40.292Z,15.70
2023-10-30T19:39:47.030Z,15.70
2023-10-30T19:43:58.216Z,15.50
2023-10-30T19:48:03.383Z,15.50
2023-10-30T19:52:06.801Z,15.50
2023-10-30T19:56:08.842Z,15.50
2023-10-30T20:00:11.901Z,15.50
2023-10-30T20:04:13.934Z,15.50
2023-10-30T20:08:15.725Z,15.50
2023-10-30T20:12:17.852Z,15.40
2023-10-30T20:16:19.553Z,15.40
2023-10-30T20:20:23.185Z,15.40
2023-10-30T20:24:25.283Z,15.50
2023-10-30T20:28:26.727Z,15.50
2023-10-30T20:32:28.278Z,15.40
2023-10-30T20:36:29.765Z,15.40
2023-10-30T20:40:31.184Z,15.30
2023-10-30T20:44:32.597Z,15.20
2023-10-30T20:48:34.041Z,15.00
2023-10-30T20:52:35.908Z,14.90
2023-10-30T20:56:37.367Z,14.60
2023-10-30T21:00:39.050Z,14.50
2023-10-30T21:04:41.086Z,14.60
2023-10-30T21:08:45.335Z,14.80
2023-10-30T21:12:46.999Z,14.80
2023-10-30T21:16:49.465Z,14.80
2023-10-30T21:20:52.362Z,15.00
2023-10-30T21:24:53.712Z,15.10
2023-10-30T21:28:55.138Z,15.00
2023-10-30T21:32:56.715Z,15.20
2023-10-30T21:36:58.349Z,15.40
2023-10-30T21:41:00.304Z,15.10
2023-10-30T21:45:01.620Z,15.00
2023-10-30T21:49:03.240Z,14.80
2023-10-30T21:53:04.925Z,14.90
2023-10-30T21:57:06.396Z,14.80
2023-10-30T22:01:07.793Z,14.80
2023-10-30T22:05:09.174Z,15.00
2023-10-30T22:09:10.515Z,15.00
2023-10-30T22:13:12.924Z,15.10
2023-10-30T22:17:14.386Z,15.10
2023-10-30T22:21:17.075Z,14.90
2023-10-30T22:25:18.308Z,14.80
2023-10-30T22:29:19.627Z,14.90
2023-10-30T22:33:21.037Z,14.70
2023-10-30T22:37:22.450Z,14.60
2023-10-30T22:41:23.872Z,14.60
2023-10-30T22:45:25.256Z,14.70
2023-10-30T22:49:27.791Z,14.50
2023-10-30T22:53:29.792Z,14.40
2023-10-30T22:57:31.226Z,14.60
2023-10-30T23:01:32.688Z,14.40
2023-10-30T23:05:34.082Z,14.20
2023-10-30T23:09:35.478Z,14.30
2023-10-30T23:13:36.940Z,14.30
2023-10-30T23:17:38.300Z,14.30
2023-10-30T23:21:39.861Z,14.30
2023-10-30T23:25:41.179Z,14.30
2023-10-30T23:29:43.323Z,14.20
2023-10-30T23:33:44.637Z,14.20
2023-10-30T23:37:45.916Z,14.30
2023-10-30T23:41:47.360Z,14.10
2023-10-30T23:45:48.668Z,14.20
2023-10-30T23:49:50.006Z,14.10
2023-10-30T23:53:51.300Z,14.30
2023-10-30T23:57:52.727Z,14.30
